sensor_id;sensor_type;location;lat;lon;timestamp;temperature;humidity
9223;DHT22;7557;51.698;3.942;2022-08-19T00:01:30;21.60;99.90
9223;DHT22;7557;51.698;3.942;2022-08-19T00:03:58;21.50;99.90
9223;DHT22;7557;51.698;3.942;2022-08-19T00:06:26;21.50;99.90
9223;DHT22;7557;51.698;3.942;2022-08-19T00:08:54;21.40;99.90
9223;DHT22;7557;51.698;3.942;2022-08-19T00:11:23;21.40;99.90
9223;DHT22;7557;51.698;3.942;2022-08-19T00:13:52;21.40;99.90
9223;DHT22;7557;51.698;3.942;2022-08-19T00:16:20;21.40;99.90
9223;DHT22;7557;51.698;3.942;2022-08-19T00:18:48;21.30;99.90
9223;DHT22;7557;51.698;3.942;2022-08-19T00:21:15;21.20;99.90
9223;DHT22;7557;51.698;3.942;2022-08-19T00:23:43;21.10;99.90
9223;DHT22;7557;51.698;3.942;2022-08-19T00:26:11;21.00;99.90
9223;DHT22;7557;51.698;3.942;2022-08-19T00:28:40;21.00;99.90
9223;DHT22;7557;51.698;3.942;2022-08-19T00:31:08;21.00;99.90
9223;DHT22;7557;51.698;3.942;2022-08-19T00:33:36;21.00;99.90
9223;DHT22;7557;51.698;3.942;2022-08-19T00:36:06;21.10;99.90
9223;DHT22;7557;51.698;3.942;2022-08-19T00:38:35;21.10;99.90
9223;DHT22;7557;51.698;3.942;2022-08-19T00:41:04;21.10;99.90
9223;DHT22;7557;51.698;3.942;2022-08-19T00:43:32;21.00;99.90
9223;DHT22;7557;51.698;3.942;2022-08-19T00:46:01;21.00;99.90
9223;DHT22;7557;51.698;3.942;2022-08-19T00:48:31;21.00;99.90
9223;DHT22;7557;51.698;3.942;2022-08-19T00:50:59;21.00;99.90
9223;DHT22;7557;51.698;3.942;2022-08-19T00:53:28;21.00;99.90
9223;DHT22;7557;51.698;3.942;2022-08-19T00:55:59;20.90;99.90
9223;DHT22;7557;51.698;3.942;2022-08-19T00:58:33;20.90;99.90
9223;DHT22;7557;51.698;3.942;2022-08-19T01:01:04;20.90;99.90
9223;DHT22;7557;51.698;3.942;2022-08-19T01:03:31;20.90;99.90
9223;DHT22;7557;51.698;3.942;2022-08-19T01:05:59;20.90;99.90
9223;DHT22;7557;51.698;3.942;2022-08-19T01:08:26;20.90;99.90
9223;DHT22;7557;51.698;3.942;2022-08-19T01:10:56;20.90;99.90
9223;DHT22;7557;51.698;3.942;2022-08-19T01:13:28;20.90;99.90
9223;DHT22;7557;51.698;3.942;2022-08-19T01:15:58;21.00;99.90
9223;DHT22;7557;51.698;3.942;2022-08-19T01:18:28;21.00;99.90
9223;DHT22;7557;51.698;3.942;2022-08-19T01:20:58;21.10;99.90
9223;DHT22;7557;51.698;3.942;2022-08-19T01:23:28;21.10;99.90
9223;DHT22;7557;51.698;3.942;2022-08-19T01:26:11;21.10;99.90
9223;DHT22;7557;51.698;3.942;2022-08-19T01:28:40;21.20;99.90
9223;DHT22;7557;51.698;3.942;2022-08-19T01:31:09;21.20;99.90
9223;DHT22;7557;51.698;3.942;2022-08-19T01:33:38;21.20;99.90
9223;DHT22;7557;51.698;3.942;2022-08-19T01:36:08;21.20;99.90
9223;DHT22;7557;51.698;3.942;2022-08-19T01:38:39;21.10;99.90
9223;DHT22;7557;51.698;3.942;2022-08-19T01:41:08;21.10;99.90
9223;DHT22;7557;51.698;3.942;2022-08-19T01:43:36;21.10;99.90
9223;DHT22;7557;51.698;3.942;2022-08-19T01:46:04;21.00;99.90
9223;DHT22;7557;51.698;3.942;2022-08-19T01:48:36;20.90;99.90
9223;DHT22;7557;51.698;3.942;2022-08-19T01:51:04;20.80;99.90
9223;DHT22;7557;51.698;3.942;2022-08-19T01:53:32;20.70;99.90
9223;DHT22;7557;51.698;3.942;2022-08-19T01:56:02;20.70;99.90
9223;DHT22;7557;51.698;3.942;2022-08-19T01:58:32;20.70;99.90
9223;DHT22;7557;51.698;3.942;2022-08-19T02:01:04;20.70;99.90
9223;DHT22;7557;51.698;3.942;2022-08-19T02:03:32;20.70;99.90
9223;DHT22;7557;51.698;3.942;2022-08-19T02:06:02;20.70;99.90
9223;DHT22;7557;51.698;3.942;2022-08-19T02:08:32;20.70;99.90
9223;DHT22;7557;51.698;3.942;2022-08-19T02:11:01;20.60;99.90
9223;DHT22;7557;51.698;3.942;2022-08-19T02:13:29;20.50;99.90
9223;DHT22;7557;51.698;3.942;2022-08-19T02:15:56;20.40;99.90
9223;DHT22;7557;51.698;3.942;2022-08-19T02:18:23;20.40;99.90
9223;DHT22;7557;51.698;3.942;2022-08-19T02:20:52;20.30;99.90
9223;DHT22;7557;51.698;3.942;2022-08-19T02:23:19;20.30;99.90
9223;DHT22;7557;51.698;3.942;2022-08-19T02:25:48;20.40;99.90
9223;DHT22;7557;51.698;3.942;2022-08-19T02:28:16;20.40;99.90
9223;DHT22;7557;51.698;3.942;2022-08-19T02:30:44;20.30;99.90
9223;DHT22;7557;51.698;3.942;2022-08-19T02:33:12;20.40;99.90
9223;DHT22;7557;51.698;3.942;2022-08-19T02:35:41;20.30;99.90
9223;DHT22;7557;51.698;3.942;2022-08-19T02:38:09;20.30;99.90
9223;DHT22;7557;51.698;3.942;2022-08-19T02:40:57;20.30;99.90
9223;DHT22;7557;51.698;3.942;2022-08-19T02:43:26;20.10;99.90
9223;DHT22;7557;51.698;3.942;2022-08-19T02:45:54;20.00;99.90
9223;DHT22;7557;51.698;3.942;2022-08-19T02:48:24;20.00;99.90
9223;DHT22;7557;51.698;3.942;2022-08-19T02:50:52;19.90;99.90
9223;DHT22;7557;51.698;3.942;2022-08-19T02:53:21;19.80;99.90
9223;DHT22;7557;51.698;3.942;2022-08-19T02:55:49;19.80;99.90
9223;DHT22;7557;51.698;3.942;2022-08-19T02:58:18;19.80;99.90
9223;DHT22;7557;51.698;3.942;2022-08-19T03:00:49;19.80;99.90
9223;DHT22;7557;51.698;3.942;2022-08-19T03:03:17;19.80;99.90
9223;DHT22;7557;51.698;3.942;2022-08-19T03:05:45;19.90;99.90
9223;DHT22;7557;51.698;3.942;2022-08-19T03:08:13;19.80;99.90
9223;DHT22;7557;51.698;3.942;2022-08-19T03:10:42;19.80;99.90
9223;DHT22;7557;51.698;3.942;2022-08-19T03:13:14;19.90;99.90
9223;DHT22;7557;51.698;3.942;2022-08-19T03:15:43;19.90;99.90
9223;DHT22;7557;51.698;3.942;2022-08-19T03:18:12;19.90;99.90
9223;DHT22;7557;51.698;3.942;2022-08-19T03:24:07;20.00;99.90
9223;DHT22;7557;51.698;3.942;2022-08-19T03:26:38;19.90;99.90
9223;DHT22;7557;51.698;3.942;2022-08-19T03:29:06;19.90;99.90
9223;DHT22;7557;51.698;3.942;2022-08-19T03:31:37;19.90;99.90
9223;DHT22;7557;51.698;3.942;2022-08-19T03:34:06;19.80;99.90
9223;DHT22;7557;51.698;3.942;2022-08-19T03:36:33;19.80;99.90
9223;DHT22;7557;51.698;3.942;2022-08-19T03:39:01;19.80;99.90
9223;DHT22;7557;51.698;3.942;2022-08-19T03:41:30;19.80;99.90
9223;DHT22;7557;51.698;3.942;2022-08-19T03:43:58;19.90;99.90
9223;DHT22;7557;51.698;3.942;2022-08-19T03:46:28;19.90;99.90
9223;DHT22;7557;51.698;3.942;2022-08-19T03:48:58;19.90;99.90
9223;DHT22;7557;51.698;3.942;2022-08-19T03:51:29;19.90;99.90
9223;DHT22;7557;51.698;3.942;2022-08-19T03:54:00;19.90;99.90
9223;DHT22;7557;51.698;3.942;2022-08-19T03:56:28;19.90;99.90
9223;DHT22;7557;51.698;3.942;2022-08-19T03:58:58;19.80;99.90
9223;DHT22;7557;51.698;3.942;2022-08-19T04:01:28;19.80;99.90
9223;DHT22;7557;51.698;3.942;2022-08-19T04:03:58;19.80;99.90
9223;DHT22;7557;51.698;3.942;2022-08-19T04:06:29;19.80;99.90
9223;DHT22;7557;51.698;3.942;2022-08-19T04:08:58;19.80;99.90
9223;DHT22;7557;51.698;3.942;2022-08-19T04:11:30;19.70;99.90
9223;DHT22;7557;51.698;3.942;2022-08-19T04:13:58;19.70;99.90
9223;DHT22;7557;51.698;3.942;2022-08-19T04:16:27;19.60;99.90
9223;DHT22;7557;51.698;3.942;2022-08-19T04:18:56;19.60;99.90
9223;DHT22;7557;51.698;3.942;2022-08-19T04:21:28;19.60;99.90
9223;DHT22;7557;51.698;3.942;2022-08-19T04:23:56;19.70;99.90
9223;DHT22;7557;51.698;3.942;2022-08-19T04:26:25;19.70;99.90
9223;DHT22;7557;51.698;3.942;2022-08-19T04:28:53;19.80;99.90
9223;DHT22;7557;51.698;3.942;2022-08-19T04:31:24;19.80;99.90
9223;DHT22;7557;51.698;3.942;2022-08-19T04:33:52;19.80;99.90
9223;DHT22;7557;51.698;3.942;2022-08-19T04:36:24;19.80;99.90
9223;DHT22;7557;51.698;3.942;2022-08-19T04:38:55;19.80;99.90
9223;DHT22;7557;51.698;3.942;2022-08-19T04:41:23;19.90;99.90
9223;DHT22;7557;51.698;3.942;2022-08-19T04:44:08;19.90;99.90
9223;DHT22;7557;51.698;3.942;2022-08-19T04:46:36;19.90;99.90
9223;DHT22;7557;51.698;3.942;2022-08-19T04:49:04;19.90;99.90
9223;DHT22;7557;51.698;3.942;2022-08-19T04:51:33;19.90;99.90
9223;DHT22;7557;51.698;3.942;2022-08-19T04:54:04;19.90;99.90
9223;DHT22;7557;51.698;3.942;2022-08-19T04:56:31;19.90;99.90
9223;DHT22;7557;51.698;3.942;2022-08-19T04:58:59;19.80;99.90
9223;DHT22;7557;51.698;3.942;2022-08-19T05:01:31;19.80;99.90
9223;DHT22;7557;51.698;3.942;2022-08-19T05:04:00;19.80;99.90
9223;DHT22;7557;51.698;3.942;2022-08-19T05:06:30;19.80;99.90
9223;DHT22;7557;51.698;3.942;2022-08-19T05:08:59;19.80;99.90
9223;DHT22;7557;51.698;3.942;2022-08-19T05:11:32;19.80;99.90
9223;DHT22;7557;51.698;3.942;2022-08-19T05:14:00;19.80;99.90
9223;DHT22;7557;51.698;3.942;2022-08-19T05:16:28;19.80;99.90
9223;DHT22;7557;51.698;3.942;2022-08-19T05:18:55;19.90;99.90
9223;DHT22;7557;51.698;3.942;2022-08-19T05:21:41;19.90;99.90
9223;DHT22;7557;51.698;3.942;2022-08-19T05:24:27;20.10;99.90
9223;DHT22;7557;51.698;3.942;2022-08-19T05:26:56;20.10;99.90
9223;DHT22;7557;51.698;3.942;2022-08-19T05:29:25;20.20;99.90
9223;DHT22;7557;51.698;3.942;2022-08-19T05:31:54;20.30;99.90
9223;DHT22;7557;51.698;3.942;2022-08-19T05:34:23;20.30;99.90
9223;DHT22;7557;51.698;3.942;2022-08-19T05:36:54;20.40;99.90
9223;DHT22;7557;51.698;3.942;2022-08-19T05:39:24;20.40;99.90
9223;DHT22;7557;51.698;3.942;2022-08-19T05:41:55;20.40;99.90
9223;DHT22;7557;51.698;3.942;2022-08-19T05:44:24;20.40;99.90
9223;DHT22;7557;51.698;3.942;2022-08-19T05:46:52;20.50;99.90
9223;DHT22;7557;51.698;3.942;2022-08-19T05:49:21;20.60;99.90
9223;DHT22;7557;51.698;3.942;2022-08-19T05:51:49;20.60;99.90
9223;DHT22;7557;51.698;3.942;2022-08-19T05:54:17;20.60;99.90
9223;DHT22;7557;51.698;3.942;2022-08-19T05:56:45;20.60;99.90
9223;DHT22;7557;51.698;3.942;2022-08-19T05:59:16;20.70;99.90
9223;DHT22;7557;51.698;3.942;2022-08-19T06:01:45;20.70;99.90
9223;DHT22;7557;51.698;3.942;2022-08-19T06:04:17;20.80;99.90
9223;DHT22;7557;51.698;3.942;2022-08-19T06:06:45;20.80;99.90
9223;DHT22;7557;51.698;3.942;2022-08-19T06:09:14;20.90;99.90
9223;DHT22;7557;51.698;3.942;2022-08-19T06:11:44;21.10;99.90
9223;DHT22;7557;51.698;3.942;2022-08-19T06:14:19;21.10;99.90
9223;DHT22;7557;51.698;3.942;2022-08-19T06:16:47;21.10;99.90
9223;DHT22;7557;51.698;3.942;2022-08-19T06:19:16;21.10;99.90
9223;DHT22;7557;51.698;3.942;2022-08-19T06:21:47;21.10;99.90
9223;DHT22;7557;51.698;3.942;2022-08-19T06:24:16;21.10;99.90
9223;DHT22;7557;51.698;3.942;2022-08-19T06:26:47;21.20;99.90
9223;DHT22;7557;51.698;3.942;2022-08-19T06:29:17;21.30;99.90
9223;DHT22;7557;51.698;3.942;2022-08-19T06:31:47;21.40;99.90
9223;DHT22;7557;51.698;3.942;2022-08-19T06:34:15;21.40;99.90
9223;DHT22;7557;51.698;3.942;2022-08-19T06:36:46;21.50;99.90
9223;DHT22;7557;51.698;3.942;2022-08-19T06:39:16;21.60;99.90
9223;DHT22;7557;51.698;3.942;2022-08-19T06:41:47;21.70;99.90
9223;DHT22;7557;51.698;3.942;2022-08-19T06:44:16;21.70;99.90
9223;DHT22;7557;51.698;3.942;2022-08-19T06:46:44;21.90;99.90
9223;DHT22;7557;51.698;3.942;2022-08-19T06:49:12;22.10;99.90
9223;DHT22;7557;51.698;3.942;2022-08-19T06:51:41;22.30;99.90
9223;DHT22;7557;51.698;3.942;2022-08-19T06:54:09;22.50;99.90
9223;DHT22;7557;51.698;3.942;2022-08-19T06:56:37;22.70;99.90
9223;DHT22;7557;51.698;3.942;2022-08-19T06:59:07;22.90;99.90
9223;DHT22;7557;51.698;3.942;2022-08-19T07:01:38;23.00;99.90
9223;DHT22;7557;51.698;3.942;2022-08-19T07:04:07;23.10;99.90
9223;DHT22;7557;51.698;3.942;2022-08-19T07:06:36;23.10;99.90
9223;DHT22;7557;51.698;3.942;2022-08-19T07:09:07;23.20;99.90
9223;DHT22;7557;51.698;3.942;2022-08-19T07:11:34;23.20;99.90
9223;DHT22;7557;51.698;3.942;2022-08-19T07:14:02;23.20;99.90
9223;DHT22;7557;51.698;3.942;2022-08-19T07:16:32;23.30;99.90
9223;DHT22;7557;51.698;3.942;2022-08-19T07:19:01;23.40;99.90
9223;DHT22;7557;51.698;3.942;2022-08-19T07:21:28;23.50;99.90
9223;DHT22;7557;51.698;3.942;2022-08-19T07:23:56;23.50;99.90
9223;DHT22;7557;51.698;3.942;2022-08-19T07:26:26;23.60;99.90
9223;DHT22;7557;51.698;3.942;2022-08-19T07:28:54;23.70;99.90
9223;DHT22;7557;51.698;3.942;2022-08-19T07:31:24;23.70;99.90
9223;DHT22;7557;51.698;3.942;2022-08-19T07:33:53;23.70;99.90
9223;DHT22;7557;51.698;3.942;2022-08-19T07:36:27;23.50;99.90
9223;DHT22;7557;51.698;3.942;2022-08-19T07:38:57;23.30;99.90
9223;DHT22;7557;51.698;3.942;2022-08-19T07:41:26;23.20;99.90
9223;DHT22;7557;51.698;3.942;2022-08-19T07:43:57;23.20;99.90
9223;DHT22;7557;51.698;3.942;2022-08-19T07:46:27;23.20;99.90
9223;DHT22;7557;51.698;3.942;2022-08-19T07:48:57;23.10;99.90
9223;DHT22;7557;51.698;3.942;2022-08-19T07:51:27;23.10;99.90
9223;DHT22;7557;51.698;3.942;2022-08-19T07:53:55;23.10;99.90
9223;DHT22;7557;51.698;3.942;2022-08-19T07:56:23;23.10;99.90
9223;DHT22;7557;51.698;3.942;2022-08-19T07:58:52;23.00;99.90
9223;DHT22;7557;51.698;3.942;2022-08-19T08:01:41;22.90;99.90
9223;DHT22;7557;51.698;3.942;2022-08-19T08:04:08;23.00;99.90
9223;DHT22;7557;51.698;3.942;2022-08-19T08:06:55;23.10;99.90
9223;DHT22;7557;51.698;3.942;2022-08-19T08:09:41;23.30;99.90
9223;DHT22;7557;51.698;3.942;2022-08-19T08:12:11;23.30;99.90
9223;DHT22;7557;51.698;3.942;2022-08-19T08:14:42;23.30;99.90
9223;DHT22;7557;51.698;3.942;2022-08-19T08:17:11;23.30;99.90
9223;DHT22;7557;51.698;3.942;2022-08-19T08:19:40;23.30;99.90
9223;DHT22;7557;51.698;3.942;2022-08-19T08:22:10;23.30;99.90
9223;DHT22;7557;51.698;3.942;2022-08-19T08:25:02;23.20;99.90
9223;DHT22;7557;51.698;3.942;2022-08-19T08:27:30;23.20;99.90
9223;DHT22;7557;51.698;3.942;2022-08-19T08:29:58;23.20;99.90
9223;DHT22;7557;51.698;3.942;2022-08-19T08:32:25;23.20;99.90
9223;DHT22;7557;51.698;3.942;2022-08-19T08:34:53;23.20;99.90
9223;DHT22;7557;51.698;3.942;2022-08-19T08:37:22;23.20;99.90
9223;DHT22;7557;51.698;3.942;2022-08-19T08:39:49;23.20;99.90
9223;DHT22;7557;51.698;3.942;2022-08-19T08:42:22;23.20;99.90
9223;DHT22;7557;51.698;3.942;2022-08-19T08:44:56;23.20;99.90
9223;DHT22;7557;51.698;3.942;2022-08-19T08:47:28;23.20;99.90
9223;DHT22;7557;51.698;3.942;2022-08-19T08:50:03;23.30;99.90
9223;DHT22;7557;51.698;3.942;2022-08-19T08:52:35;23.50;99.90
9223;DHT22;7557;51.698;3.942;2022-08-19T08:55:07;23.60;99.90
9223;DHT22;7557;51.698;3.942;2022-08-19T08:57:38;23.60;99.90
9223;DHT22;7557;51.698;3.942;2022-08-19T09:00:09;23.70;99.90
9223;DHT22;7557;51.698;3.942;2022-08-19T09:07:49;23.90;99.90
9223;DHT22;7557;51.698;3.942;2022-08-19T09:10:22;23.90;99.90
9223;DHT22;7557;51.698;3.942;2022-08-19T09:13:01;24.00;99.90
9223;DHT22;7557;51.698;3.942;2022-08-19T09:15:34;24.10;99.90
9223;DHT22;7557;51.698;3.942;2022-08-19T09:18:04;24.10;99.90
9223;DHT22;7557;51.698;3.942;2022-08-19T09:20:32;24.20;99.90
9223;DHT22;7557;51.698;3.942;2022-08-19T09:23:01;24.20;99.90
9223;DHT22;7557;51.698;3.942;2022-08-19T09:25:29;24.10;99.90
9223;DHT22;7557;51.698;3.942;2022-08-19T09:28:00;24.20;99.90
9223;DHT22;7557;51.698;3.942;2022-08-19T09:30:31;24.10;99.90
9223;DHT22;7557;51.698;3.942;2022-08-19T09:32:59;24.20;99.90
9223;DHT22;7557;51.698;3.942;2022-08-19T09:35:28;24.20;99.90
9223;DHT22;7557;51.698;3.942;2022-08-19T09:37:57;24.20;99.90
9223;DHT22;7557;51.698;3.942;2022-08-19T09:40:27;24.30;99.90
9223;DHT22;7557;51.698;3.942;2022-08-19T09:42:55;24.30;99.90
9223;DHT22;7557;51.698;3.942;2022-08-19T09:45:23;24.30;99.90
9223;DHT22;7557;51.698;3.942;2022-08-19T09:47:51;24.40;99.90
9223;DHT22;7557;51.698;3.942;2022-08-19T09:50:20;24.40;99.90
9223;DHT22;7557;51.698;3.942;2022-08-19T09:52:48;24.50;99.90
9223;DHT22;7557;51.698;3.942;2022-08-19T09:55:16;24.50;99.90
9223;DHT22;7557;51.698;3.942;2022-08-19T09:57:45;24.60;99.90
9223;DHT22;7557;51.698;3.942;2022-08-19T10:00:13;24.70;99.90
9223;DHT22;7557;51.698;3.942;2022-08-19T10:02:40;24.70;99.90
9223;DHT22;7557;51.698;3.942;2022-08-19T10:05:08;24.80;99.90
9223;DHT22;7557;51.698;3.942;2022-08-19T10:07:52;24.80;99.90
9223;DHT22;7557;51.698;3.942;2022-08-19T10:10:20;24.90;99.90
9223;DHT22;7557;51.698;3.942;2022-08-19T10:12:49;25.00;99.90
9223;DHT22;7557;51.698;3.942;2022-08-19T10:15:19;25.10;99.90
9223;DHT22;7557;51.698;3.942;2022-08-19T10:17:47;25.20;99.90
9223;DHT22;7557;51.698;3.942;2022-08-19T10:20:14;25.20;99.90
9223;DHT22;7557;51.698;3.942;2022-08-19T10:22:41;25.10;99.90
9223;DHT22;7557;51.698;3.942;2022-08-19T10:25:09;25.00;99.90
9223;DHT22;7557;51.698;3.942;2022-08-19T10:27:36;25.00;99.90
9223;DHT22;7557;51.698;3.942;2022-08-19T10:30:07;24.90;99.90
9223;DHT22;7557;51.698;3.942;2022-08-19T10:32:35;24.90;99.90
9223;DHT22;7557;51.698;3.942;2022-08-19T10:35:03;24.90;99.90
9223;DHT22;7557;51.698;3.942;2022-08-19T10:37:34;24.80;99.90
9223;DHT22;7557;51.698;3.942;2022-08-19T10:40:04;24.90;99.90
9223;DHT22;7557;51.698;3.942;2022-08-19T10:42:33;24.80;99.90
9223;DHT22;7557;51.698;3.942;2022-08-19T10:45:00;24.90;99.90
9223;DHT22;7557;51.698;3.942;2022-08-19T10:47:29;24.90;99.90
9223;DHT22;7557;51.698;3.942;2022-08-19T10:49:56;24.90;99.90
9223;DHT22;7557;51.698;3.942;2022-08-19T10:52:42;24.90;99.90
9223;DHT22;7557;51.698;3.942;2022-08-19T10:55:09;25.00;99.90
9223;DHT22;7557;51.698;3.942;2022-08-19T10:57:54;25.10;99.90
9223;DHT22;7557;51.698;3.942;2022-08-19T11:00:23;25.10;99.90
9223;DHT22;7557;51.698;3.942;2022-08-19T11:02:53;25.30;99.90
9223;DHT22;7557;51.698;3.942;2022-08-19T11:05:21;25.30;99.90
9223;DHT22;7557;51.698;3.942;2022-08-19T11:07:49;25.30;99.90
9223;DHT22;7557;51.698;3.942;2022-08-19T11:10:17;25.30;99.90
9223;DHT22;7557;51.698;3.942;2022-08-19T11:12:46;25.30;99.90
9223;DHT22;7557;51.698;3.942;2022-08-19T11:15:14;25.30;99.90
9223;DHT22;7557;51.698;3.942;2022-08-19T11:17:41;25.20;99.90
9223;DHT22;7557;51.698;3.942;2022-08-19T11:20:12;25.30;99.90
9223;DHT22;7557;51.698;3.942;2022-08-19T11:22:40;25.20;99.90
9223;DHT22;7557;51.698;3.942;2022-08-19T11:25:09;25.30;99.90
9223;DHT22;7557;51.698;3.942;2022-08-19T11:27:39;25.30;99.90
9223;DHT22;7557;51.698;3.942;2022-08-19T11:30:09;25.30;99.90
9223;DHT22;7557;51.698;3.942;2022-08-19T11:32:37;25.40;99.90
9223;DHT22;7557;51.698;3.942;2022-08-19T11:35:05;25.50;99.90
9223;DHT22;7557;51.698;3.942;2022-08-19T11:37:34;25.50;99.90
9223;DHT22;7557;51.698;3.942;2022-08-19T11:40:05;25.40;99.90
9223;DHT22;7557;51.698;3.942;2022-08-19T11:42:32;25.40;99.90
9223;DHT22;7557;51.698;3.942;2022-08-19T11:45:17;25.40;99.90
9223;DHT22;7557;51.698;3.942;2022-08-19T11:47:45;25.50;99.90
9223;DHT22;7557;51.698;3.942;2022-08-19T11:50:13;25.50;99.90
9223;DHT22;7557;51.698;3.942;2022-08-19T11:52:42;25.50;99.90
9223;DHT22;7557;51.698;3.942;2022-08-19T11:55:11;25.50;99.90
9223;DHT22;7557;51.698;3.942;2022-08-19T11:57:38;25.50;99.90
9223;DHT22;7557;51.698;3.942;2022-08-19T12:00:07;25.50;99.90
9223;DHT22;7557;51.698;3.942;2022-08-19T12:02:37;25.50;99.90
9223;DHT22;7557;51.698;3.942;2022-08-19T12:05:05;25.60;99.90
9223;DHT22;7557;51.698;3.942;2022-08-19T12:07:33;25.60;99.90
9223;DHT22;7557;51.698;3.942;2022-08-19T12:10:03;25.60;99.90
9223;DHT22;7557;51.698;3.942;2022-08-19T12:12:31;25.50;99.90
9223;DHT22;7557;51.698;3.942;2022-08-19T12:14:58;25.50;99.90
9223;DHT22;7557;51.698;3.942;2022-08-19T12:17:26;25.50;99.90
9223;DHT22;7557;51.698;3.942;2022-08-19T12:19:54;25.40;99.90
9223;DHT22;7557;51.698;3.942;2022-08-19T12:22:22;25.30;99.90
9223;DHT22;7557;51.698;3.942;2022-08-19T12:24:49;25.30;99.90
9223;DHT22;7557;51.698;3.942;2022-08-19T12:27:20;25.30;99.90
9223;DHT22;7557;51.698;3.942;2022-08-19T12:29:47;25.50;99.90
9223;DHT22;7557;51.698;3.942;2022-08-19T12:32:15;25.70;99.90
9223;DHT22;7557;51.698;3.942;2022-08-19T12:34:43;25.80;99.90
9223;DHT22;7557;51.698;3.942;2022-08-19T12:37:13;25.90;99.90
9223;DHT22;7557;51.698;3.942;2022-08-19T12:39:42;26.00;99.90
9223;DHT22;7557;51.698;3.942;2022-08-19T12:42:10;26.00;99.90
9223;DHT22;7557;51.698;3.942;2022-08-19T12:44:41;26.00;99.90
9223;DHT22;7557;51.698;3.942;2022-08-19T12:47:11;26.00;99.90
9223;DHT22;7557;51.698;3.942;2022-08-19T12:49:39;25.90;99.90
9223;DHT22;7557;51.698;3.942;2022-08-19T12:52:07;25.70;99.90
9223;DHT22;7557;51.698;3.942;2022-08-19T12:54:36;25.70;99.90
9223;DHT22;7557;51.698;3.942;2022-08-19T12:57:05;25.60;99.90
9223;DHT22;7557;51.698;3.942;2022-08-19T12:59:33;25.60;99.90
9223;DHT22;7557;51.698;3.942;2022-08-19T13:02:04;25.50;99.90
9223;DHT22;7557;51.698;3.942;2022-08-19T13:04:32;25.50;99.90
9223;DHT22;7557;51.698;3.942;2022-08-19T13:07:00;25.40;99.90
9223;DHT22;7557;51.698;3.942;2022-08-19T13:09:28;25.40;99.90
9223;DHT22;7557;51.698;3.942;2022-08-19T13:11:55;25.40;99.90
9223;DHT22;7557;51.698;3.942;2022-08-19T13:14:23;25.50;99.90
9223;DHT22;7557;51.698;3.942;2022-08-19T13:16:50;25.50;99.90
9223;DHT22;7557;51.698;3.942;2022-08-19T13:19:19;25.60;99.90
9223;DHT22;7557;51.698;3.942;2022-08-19T13:21:49;25.60;99.90
9223;DHT22;7557;51.698;3.942;2022-08-19T13:24:17;25.70;99.90
9223;DHT22;7557;51.698;3.942;2022-08-19T13:26:44;25.70;99.90
9223;DHT22;7557;51.698;3.942;2022-08-19T13:29:11;25.80;99.90
9223;DHT22;7557;51.698;3.942;2022-08-19T13:31:56;25.80;99.90
9223;DHT22;7557;51.698;3.942;2022-08-19T13:34:43;25.90;99.90
9223;DHT22;7557;51.698;3.942;2022-08-19T13:37:13;26.00;99.90
9223;DHT22;7557;51.698;3.942;2022-08-19T13:39:40;26.10;99.90
9223;DHT22;7557;51.698;3.942;2022-08-19T13:42:08;26.10;99.90
9223;DHT22;7557;51.698;3.942;2022-08-19T13:44:36;26.10;99.90
9223;DHT22;7557;51.698;3.942;2022-08-19T13:47:05;26.00;99.90
9223;DHT22;7557;51.698;3.942;2022-08-19T13:49:34;26.00;99.90
9223;DHT22;7557;51.698;3.942;2022-08-19T13:52:05;26.10;99.90
9223;DHT22;7557;51.698;3.942;2022-08-19T13:54:33;26.10;99.90
9223;DHT22;7557;51.698;3.942;2022-08-19T13:57:00;26.00;99.90
9223;DHT22;7557;51.698;3.942;2022-08-19T13:59:27;25.90;99.90
9223;DHT22;7557;51.698;3.942;2022-08-19T14:01:58;25.80;99.90
9223;DHT22;7557;51.698;3.942;2022-08-19T14:04:25;25.60;99.90
9223;DHT22;7557;51.698;3.942;2022-08-19T14:06:52;25.40;99.90
9223;DHT22;7557;51.698;3.942;2022-08-19T14:09:21;25.30;99.90
9223;DHT22;7557;51.698;3.942;2022-08-19T14:11:49;25.20;99.90
9223;DHT22;7557;51.698;3.942;2022-08-19T14:14:16;25.20;99.90
9223;DHT22;7557;51.698;3.942;2022-08-19T14:16:43;25.10;99.90
9223;DHT22;7557;51.698;3.942;2022-08-19T14:19:11;25.00;99.90
9223;DHT22;7557;51.698;3.942;2022-08-19T14:21:38;25.00;99.90
9223;DHT22;7557;51.698;3.942;2022-08-19T14:24:06;25.00;99.90
9223;DHT22;7557;51.698;3.942;2022-08-19T14:26:36;25.10;99.90
9223;DHT22;7557;51.698;3.942;2022-08-19T14:29:04;25.20;99.90
9223;DHT22;7557;51.698;3.942;2022-08-19T14:31:31;25.10;99.90
9223;DHT22;7557;51.698;3.942;2022-08-19T14:33:58;25.20;99.90
9223;DHT22;7557;51.698;3.942;2022-08-19T14:36:26;25.20;99.90
9223;DHT22;7557;51.698;3.942;2022-08-19T14:38:53;25.20;99.90
9223;DHT22;7557;51.698;3.942;2022-08-19T14:41:22;25.20;99.90
9223;DHT22;7557;51.698;3.942;2022-08-19T14:43:52;25.30;99.90
9223;DHT22;7557;51.698;3.942;2022-08-19T14:46:21;25.20;99.90
9223;DHT22;7557;51.698;3.942;2022-08-19T14:48:49;25.00;99.90
9223;DHT22;7557;51.698;3.942;2022-08-19T14:51:17;24.90;99.90
9223;DHT22;7557;51.698;3.942;2022-08-19T14:53:44;24.70;99.90
9223;DHT22;7557;51.698;3.942;2022-08-19T14:56:16;24.60;99.90
9223;DHT22;7557;51.698;3.942;2022-08-19T14:58:44;24.60;99.90
9223;DHT22;7557;51.698;3.942;2022-08-19T15:01:13;24.60;99.90
9223;DHT22;7557;51.698;3.942;2022-08-19T15:03:40;24.50;99.90
9223;DHT22;7557;51.698;3.942;2022-08-19T15:06:08;24.40;99.90
9223;DHT22;7557;51.698;3.942;2022-08-19T15:08:37;24.40;99.90
9223;DHT22;7557;51.698;3.942;2022-08-19T15:11:08;24.40;99.90
9223;DHT22;7557;51.698;3.942;2022-08-19T15:13:37;24.50;99.90
9223;DHT22;7557;51.698;3.942;2022-08-19T15:16:05;24.70;99.90
9223;DHT22;7557;51.698;3.942;2022-08-19T15:18:34;24.80;99.90
9223;DHT22;7557;51.698;3.942;2022-08-19T15:21:01;25.00;99.90
9223;DHT22;7557;51.698;3.942;2022-08-19T15:23:29;25.20;99.90
9223;DHT22;7557;51.698;3.942;2022-08-19T15:25:57;25.20;99.90
9223;DHT22;7557;51.698;3.942;2022-08-19T15:28:25;25.30;99.90
9223;DHT22;7557;51.698;3.942;2022-08-19T15:30:52;25.30;99.90
9223;DHT22;7557;51.698;3.942;2022-08-19T15:33:20;25.30;99.90
9223;DHT22;7557;51.698;3.942;2022-08-19T15:35:49;25.30;99.90
9223;DHT22;7557;51.698;3.942;2022-08-19T15:38:17;25.30;99.90
9223;DHT22;7557;51.698;3.942;2022-08-19T15:40:47;25.30;99.90
9223;DHT22;7557;51.698;3.942;2022-08-19T15:43:16;25.20;99.90
9223;DHT22;7557;51.698;3.942;2022-08-19T15:45:44;25.20;99.90
9223;DHT22;7557;51.698;3.942;2022-08-19T15:48:11;25.10;99.90
9223;DHT22;7557;51.698;3.942;2022-08-19T15:50:39;25.10;99.90
9223;DHT22;7557;51.698;3.942;2022-08-19T15:53:09;25.00;99.90
9223;DHT22;7557;51.698;3.942;2022-08-19T15:55:42;25.00;99.90
9223;DHT22;7557;51.698;3.942;2022-08-19T15:58:12;25.00;99.90
9223;DHT22;7557;51.698;3.942;2022-08-19T16:01:00;25.10;99.90
9223;DHT22;7557;51.698;3.942;2022-08-19T16:03:52;25.10;99.90
9223;DHT22;7557;51.698;3.942;2022-08-19T16:06:39;25.30;99.90
9223;DHT22;7557;51.698;3.942;2022-08-19T16:09:08;25.30;99.90
9223;DHT22;7557;51.698;3.942;2022-08-19T16:11:35;25.40;99.90
9223;DHT22;7557;51.698;3.942;2022-08-19T16:14:02;25.30;99.90
9223;DHT22;7557;51.698;3.942;2022-08-19T16:16:34;25.30;99.90
9223;DHT22;7557;51.698;3.942;2022-08-19T16:19:05;25.20;99.90
9223;DHT22;7557;51.698;3.942;2022-08-19T16:21:33;25.20;99.90
9223;DHT22;7557;51.698;3.942;2022-08-19T16:24:04;25.10;99.90
9223;DHT22;7557;51.698;3.942;2022-08-19T16:26:34;25.00;99.90